createdAt,value
2022-08-27T00:00:56.351Z,101588.88
2022-08-27T00:03:42.019Z,101571.34
2022-08-27T00:06:27.496Z,101585.41
2022-08-27T00:09:12.763Z,101581.31
2022-08-27T00:11:58.847Z,101566.31
2022-08-27T00:14:44.396Z,101566.31
2022-08-27T00:17:29.504Z,101579.53
2022-08-27T00:20:18.015Z,101585.28
2022-08-27T00:23:03.341Z,101563.56
2022-08-27T00:25:48.590Z,101582.81
2022-08-27T00:28:35.026Z,101580.91
2022-08-27T00:31:20.295Z,101573.00
2022-08-27T00:34:13.101Z,101576.72
2022-08-27T00:36:58.418Z,101574.28
2022-08-27T00:39:43.694Z,101578.75
2022-08-27T00:42:29.499Z,101551.72
2022-08-27T00:45:19.864Z,101575.63
2022-08-27T00:48:08.969Z,101578.38
2022-08-27T00:50:55.522Z,101576.34
2022-08-27T00:53:41.345Z,101567.09
2022-08-27T00:56:31.846Z,101570.47
2022-08-27T00:59:18.152Z,101567.09
2022-08-27T01:02:18.773Z,101563.19
2022-08-27T01:05:11.405Z,101563.34
2022-08-27T01:08:02.023Z,101561.97
2022-08-27T01:10:48.673Z,101546.50
2022-08-27T01:13:42.130Z,101557.41
2022-08-27T01:16:45.805Z,101560.28
2022-08-27T01:19:40.903Z,101558.09
2022-08-27T01:22:45.372Z,101552.31
2022-08-27T01:25:30.926Z,101543.31
2022-08-27T01:28:16.553Z,101549.91
2022-08-27T01:31:07.488Z,101559.66
2022-08-27T01:34:18.950Z,101549.00
2022-08-27T01:37:06.591Z,101552.38
2022-08-27T01:39:53.490Z,101548.16
2022-08-27T01:42:41.847Z,101541.31
2022-08-27T01:45:30.226Z,101521.13
2022-08-27T01:48:17.886Z,101542.88
2022-08-27T01:51:03.516Z,101544.69
2022-08-27T01:53:48.571Z,101537.94
2022-08-27T01:56:33.772Z,101540.91
2022-08-27T01:59:18.853Z,101551.38
2022-08-27T02:02:04.990Z,101529.66
2022-08-27T02:04:51.639Z,101549.56
2022-08-27T02:07:39.119Z,101539.47
2022-08-27T02:10:34.112Z,101542.19
2022-08-27T02:13:19.412Z,101540.94
2022-08-27T02:16:05.439Z,101545.63
2022-08-27T02:18:50.536Z,101545.22
2022-08-27T02:21:35.848Z,101546.94
2022-08-27T02:24:22.750Z,101548.03
2022-08-27T02:27:08.401Z,101541.41
2022-08-27T02:29:54.482Z,101547.59
2022-08-27T02:32:39.551Z,101556.81
2022-08-27T02:35:25.440Z,101554.25
2022-08-27T02:38:13.082Z,101550.41
2022-08-27T02:40:58.482Z,101552.53
2022-08-27T02:43:45.318Z,101549.47
2022-08-27T02:46:31.398Z,101546.88
2022-08-27T02:49:17.883Z,101548.06
2022-08-27T02:52:03.776Z,101554.91
2022-08-27T02:54:50.298Z,101536.38
2022-08-27T02:57:36.413Z,101547.44
2022-08-27T03:00:24.222Z,101540.28
2022-08-27T03:03:10.655Z,101546.50
2022-08-27T03:05:58.620Z,101546.63
2022-08-27T03:08:52.163Z,101553.25
2022-08-27T03:11:39.540Z,101544.50
2022-08-27T03:14:24.546Z,101546.09
2022-08-27T03:17:28.416Z,101546.31
2022-08-27T03:20:13.975Z,101541.44
2022-08-27T03:23:00.232Z,101541.44
2022-08-27T03:25:51.342Z,101542.50
2022-08-27T03:28:36.660Z,101530.94
2022-08-27T03:31:27.363Z,101525.03
2022-08-27T03:34:13.244Z,101541.91
2022-08-27T03:37:00.246Z,101540.34
2022-08-27T03:39:45.493Z,101532.34
2022-08-27T03:42:30.750Z,101534.97
2022-08-27T03:45:16.233Z,101539.50
2022-08-27T03:48:01.535Z,101537.09
2022-08-27T03:50:48.473Z,101524.75
2022-08-27T03:53:34.813Z,101534.06
2022-08-27T03:56:19.922Z,101545.22
2022-08-27T03:59:06.674Z,101546.19
2022-08-27T04:01:51.998Z,101530.56
2022-08-27T04:04:37.146Z,101535.94
2022-08-27T04:07:22.254Z,101525.94
2022-08-27T04:10:09.529Z,101540.56
2022-08-27T04:12:54.418Z,101539.72
2022-08-27T04:15:49.697Z,101547.31
2022-08-27T04:18:34.585Z,101531.00
2022-08-27T04:21:20.402Z,101535.63
2022-08-27T04:24:05.904Z,101544.78
2022-08-27T04:26:51.677Z,101543.84
2022-08-27T04:29:37.718Z,101546.34
2022-08-27T04:32:27.397Z,101538.59
2022-08-27T04:35:14.882Z,101544.78
2022-08-27T04:38:00.109Z,101540.69
2022-08-27T04:41:03.634Z,101544.78
2022-08-27T04:43:58.120Z,101531.72
2022-08-27T04:46:43.689Z,101548.91
2022-08-27T04:49:35.652Z,101539.50
2022-08-27T04:52:21.331Z,101534.97
2022-08-27T04:55:07.279Z,101532.44
2022-08-27T04:57:52.160Z,101546.78
2022-08-27T05:00:45.172Z,101552.78
2022-08-27T05:03:30.891Z,101548.47
2022-08-27T05:06:17.047Z,101551.31
2022-08-27T05:09:02.719Z,101543.84
2022-08-27T05:11:47.956Z,101556.69
2022-08-27T05:14:33.318Z,101547.41
2022-08-27T05:17:18.723Z,101557.63
2022-08-27T05:20:05.158Z,101565.63
2022-08-27T05:22:50.224Z,101544.38
2022-08-27T05:25:39.897Z,101562.06
2022-08-27T05:28:28.029Z,101564.19
2022-08-27T05:31:15.018Z,101565.31
2022-08-27T05:34:00.953Z,101559.44
2022-08-27T05:36:48.707Z,101556.19
2022-08-27T05:39:34.539Z,101542.69
2022-08-27T05:42:19.705Z,101551.63
2022-08-27T05:45:05.423Z,101562.69
2022-08-27T05:47:50.791Z,101552.38
2022-08-27T05:50:36.085Z,101552.50
2022-08-27T05:53:21.329Z,101559.22
2022-08-27T05:56:13.362Z,101568.28
2022-08-27T05:59:17.205Z,101576.94
2022-08-27T06:02:03.097Z,101573.97
2022-08-27T06:04:48.702Z,101589.03
2022-08-27T06:07:34.990Z,101573.22
2022-08-27T06:10:19.934Z,101573.13
2022-08-27T06:13:05.198Z,101577.44
2022-08-27T06:15:50.541Z,101578.19
2022-08-27T06:18:38.422Z,101579.47
2022-08-27T06:21:24.936Z,101578.09
2022-08-27T06:24:14.950Z,101582.94
2022-08-27T06:26:59.920Z,101587.03
2022-08-27T06:29:45.500Z,101588.28
2022-08-27T06:32:31.355Z,101577.31
2022-08-27T06:35:16.421Z,101587.97
2022-08-27T06:38:01.827Z,101586.69
2022-08-27T06:40:46.870Z,101584.75
2022-08-27T06:43:32.015Z,101585.69
2022-08-27T06:46:18.867Z,101585.03
2022-08-27T06:49:04.123Z,101593.22
2022-08-27T06:51:49.481Z,101578.69
2022-08-27T06:54:35.633Z,101584.47
2022-08-27T06:57:21.305Z,101595.03
2022-08-27T07:00:08.455Z,101588.28
2022-08-27T07:02:53.722Z,101605.88
2022-08-27T07:05:40.444Z,101607.63
2022-08-27T07:08:25.949Z,101603.03
2022-08-27T07:11:14.721Z,101611.66
2022-08-27T07:14:00.748Z,101607.97
2022-08-27T07:16:45.948Z,101601.56
2022-08-27T07:19:33.717Z,101613.34
2022-08-27T07:22:19.055Z,101610.59
2022-08-27T07:25:04.372Z,101588.03
2022-08-27T07:27:50.752Z,101603.66
2022-08-27T07:30:37.569Z,101609.69
2022-08-27T07:33:22.842Z,101609.84
2022-08-27T07:36:09.056Z,101609.03
2022-08-27T07:39:00.933Z,101607.47
2022-08-27T07:42:05.525Z,101603.16
2022-08-27T07:44:50.716Z,101618.88
2022-08-27T07:47:35.971Z,101615.16
2022-08-27T07:50:26.779Z,101609.81
2022-08-27T07:53:11.643Z,101631.66
2022-08-27T07:56:02.501Z,101613.13
2022-08-27T07:58:47.673Z,101625.56
2022-08-27T08:01:32.846Z,101596.06
2022-08-27T08:04:20.274Z,101620.72
2022-08-27T08:07:05.880Z,101616.50
2022-08-27T08:09:51.119Z,101617.00
2022-08-27T08:12:37.484Z,101617.41
2022-08-27T08:15:22.578Z,101620.53
2022-08-27T08:18:07.713Z,101622.56
2022-08-27T08:20:58.489Z,101624.00
2022-08-27T08:23:44.139Z,101601.94
2022-08-27T08:26:29.668Z,101615.09
2022-08-27T08:29:18.382Z,101615.41
2022-08-27T08:32:06.578Z,101629.41
2022-08-27T08:34:51.463Z,101624.13
2022-08-27T08:37:37.863Z,101625.94
2022-08-27T08:40:39.648Z,101621.91
2022-08-27T08:43:51.467Z,101626.38
2022-08-27T08:46:45.345Z,101623.69
2022-08-27T08:49:30.634Z,101628.72
2022-08-27T08:52:30.644Z,101624.50
2022-08-27T08:55:40.365Z,101606.41
2022-08-27T08:58:45.824Z,101634.09
2022-08-27T09:01:31.255Z,101641.09
2022-08-27T09:04:16.627Z,101642.63
2022-08-27T09:07:46.139Z,101636.41
2022-08-27T09:10:57.553Z,101642.31
2022-08-27T09:13:53.315Z,101641.88
2022-08-27T09:16:38.878Z,101644.25
2022-08-27T09:19:24.842Z,101642.38
2022-08-27T09:22:37.928Z,101638.13
2022-08-27T09:25:33.496Z,101644.84
2022-08-27T09:28:45.546Z,101629.16
2022-08-27T09:31:36.578Z,101628.56
2022-08-27T09:34:24.325Z,101630.19
2022-08-27T09:37:33.876Z,101628.88
2022-08-27T09:40:28.201Z,101620.88
2022-08-27T09:43:16.918Z,101632.31
2022-08-27T09:46:15.483Z,101631.16
2022-08-27T09:49:12.550Z,101621.22
2022-08-27T09:51:57.896Z,101629.66
2022-08-27T09:54:47.173Z,101630.81
2022-08-27T09:57:42.300Z,101619.53
2022-08-27T10:00:39.851Z,101621.38
2022-08-27T10:03:26.000Z,101615.09
2022-08-27T10:06:13.343Z,101625.00
2022-08-27T10:09:17.221Z,101631.22
2022-08-27T10:12:10.514Z,101631.44
2022-08-27T10:14:59.521Z,101628.00
2022-08-27T10:17:56.294Z,101628.34
2022-08-27T10:20:54.665Z,101621.03
2022-08-27T10:24:15.330Z,101629.47
2022-08-27T10:27:06.364Z,101621.19
2022-08-27T10:30:36.000Z,101616.59
2022-08-27T10:33:33.237Z,101613.72
2022-08-27T10:36:59.689Z,101615.09
2022-08-27T10:40:18.125Z,101622.97
2022-08-27T10:43:34.046Z,101611.75
2022-08-27T10:46:53.529Z,101606.78
2022-08-27T10:50:05.413Z,101607.19
2022-08-27T10:53:01.332Z,101602.88
2022-08-27T10:55:52.433Z,101604.81
2022-08-27T10:58:45.461Z,101595.22
2022-08-27T11:01:53.965Z,101617.00
2022-08-27T11:04:44.761Z,101609.91
2022-08-27T11:07:44.858Z,101602.84
2022-08-27T11:10:34.005Z,101602.53
2022-08-27T11:13:25.257Z,101598.72
2022-08-27T11:16:28.673Z,101587.00
2022-08-27T11:19:36.060Z,101589.50
2022-08-27T11:22:34.488Z,101584.44
2022-08-27T11:25:22.280Z,101595.69
2022-08-27T11:28:10.324Z,101579.16
2022-08-27T11:31:21.368Z,101583.38
2022-08-27T11:34:32.316Z,101583.50
2022-08-27T11:37:35.070Z,101587.56
2022-08-27T11:40:20.234Z,101573.25
2022-08-27T11:43:13.801Z,101589.91
2022-08-27T11:46:02.803Z,101577.50
2022-08-27T11:48:58.314Z,101592.56
2022-08-27T11:51:43.351Z,101586.72
2022-08-27T11:54:46.547Z,101585.38
2022-08-27T11:57:36.177Z,101571.75
2022-08-27T12:00:33.904Z,101574.69
2022-08-27T12:03:19.014Z,101579.97
2022-08-27T12:06:17.817Z,101573.38
2022-08-27T12:09:16.118Z,101580.72
2022-08-27T12:12:20.433Z,101589.47
2022-08-27T12:15:11.714Z,101581.81
2022-08-27T12:18:17.754Z,101583.84
2022-08-27T12:21:17.888Z,101579.59
2022-08-27T12:24:35.260Z,101585.91
2022-08-27T12:27:28.149Z,101583.75
2022-08-27T12:30:28.281Z,101585.03
2022-08-27T12:33:49.275Z,101575.91
2022-08-27T12:36:35.282Z,101584.81
2022-08-27T12:39:28.850Z,101583.19
2022-08-27T12:42:19.043Z,101573.03
2022-08-27T12:45:04.364Z,101579.28
2022-08-27T12:47:50.601Z,101576.66
2022-08-27T12:50:36.541Z,101580.13
2022-08-27T12:53:31.039Z,101577.34
2022-08-27T12:56:36.958Z,101577.56
2022-08-27T12:59:51.177Z,101581.63
2022-08-27T13:03:01.101Z,101574.00
2022-08-27T13:05:49.469Z,101574.53
2022-08-27T13:08:36.258Z,101584.47
2022-08-27T13:11:27.587Z,101580.13
2022-08-27T13:14:22.456Z,101582.63
2022-08-27T13:17:11.587Z,101570.38
2022-08-27T13:19:59.961Z,101567.56
2022-08-27T13:22:45.495Z,101557.97
2022-08-27T13:25:33.422Z,101560.38
2022-08-27T13:28:22.413Z,101570.34
2022-08-27T13:31:10.173Z,101560.94
2022-08-27T13:33:59.725Z,101560.09
2022-08-27T13:37:06.654Z,101570.19
2022-08-27T13:39:56.525Z,101565.03
2022-08-27T13:42:45.082Z,101577.13
2022-08-27T13:45:31.504Z,101569.28
2022-08-27T13:48:19.845Z,101566.00
2022-08-27T13:51:10.307Z,101569.34
2022-08-27T13:54:14.455Z,101569.22
2022-08-27T13:57:08.243Z,101568.47
2022-08-27T13:59:53.564Z,101555.91
2022-08-27T14:02:40.451Z,101569.38
2022-08-27T14:05:26.814Z,101564.09
2022-08-27T14:08:17.723Z,101571.47
2022-08-27T14:11:07.317Z,101565.44
2022-08-27T14:13:53.999Z,101572.25
2022-08-27T14:16:40.263Z,101569.06
2022-08-27T14:19:36.590Z,101572.13
2022-08-27T14:22:22.643Z,101569.22
2022-08-27T14:25:09.248Z,101564.16
2022-08-27T14:27:55.105Z,101567.28
2022-08-27T14:30:40.434Z,101570.19
2022-08-27T14:33:25.691Z,101572.16
2022-08-27T14:36:11.174Z,101553.81
2022-08-27T14:38:56.370Z,101573.44
2022-08-27T14:41:41.749Z,101556.78
2022-08-27T14:44:27.407Z,101555.28
2022-08-27T14:47:16.357Z,101552.63
2022-08-27T14:50:01.927Z,101561.69
2022-08-27T14:52:47.295Z,101542.94
2022-08-27T14:55:32.212Z,101548.56
2022-08-27T14:58:17.600Z,101563.25
2022-08-27T15:01:04.818Z,101562.84
2022-08-27T15:03:51.235Z,101556.31
2022-08-27T15:06:36.589Z,101556.84
2022-08-27T15:09:23.025Z,101547.28
2022-08-27T15:12:15.399Z,101545.91
2022-08-27T15:15:12.520Z,101557.97
2022-08-27T15:17:57.735Z,101554.44
2022-08-27T15:20:43.373Z,101562.34
2022-08-27T15:23:28.445Z,101557.59
2022-08-27T15:26:13.724Z,101553.19
2022-08-27T15:29:02.830Z,101561.41
2022-08-27T15:31:51.165Z,101545.50
2022-08-27T15:34:36.435Z,101557.16
2022-08-27T15:37:21.932Z,101559.00
2022-08-27T15:40:07.990Z,101557.53
2022-08-27T15:42:59.598Z,101550.63
2022-08-27T15:45:44.953Z,101545.63
2022-08-27T15:48:30.445Z,101560.84
2022-08-27T15:51:28.831Z,101555.03
2022-08-27T15:54:14.182Z,101556.63
2022-08-27T15:56:59.996Z,101568.38
2022-08-27T15:59:45.766Z,101572.50
2022-08-27T16:02:30.636Z,101564.56
2022-08-27T16:05:16.487Z,101576.72
2022-08-27T16:08:02.465Z,101564.41
2022-08-27T16:10:47.840Z,101572.44
2022-08-27T16:13:33.116Z,101569.63
2022-08-27T16:16:24.186Z,101556.59
2022-08-27T16:19:12.598Z,101566.13
2022-08-27T16:22:00.749Z,101570.31
2022-08-27T16:24:46.034Z,101569.63
2022-08-27T16:27:31.185Z,101564.13
2022-08-27T16:30:17.484Z,101571.13
2022-08-27T16:33:03.080Z,101566.81
2022-08-27T16:35:48.305Z,101562.16
2022-08-27T16:38:33.591Z,101566.16
2022-08-27T16:41:18.480Z,101564.97
2022-08-27T16:44:05.014Z,101564.50
2022-08-27T16:46:50.069Z,101559.66
2022-08-27T16:49:54.088Z,101552.78
2022-08-27T16:52:39.377Z,101560.81
2022-08-27T16:55:24.652Z,101553.28
2022-08-27T16:58:17.907Z,101562.66
2022-08-27T17:01:07.630Z,101571.00
2022-08-27T17:04:09.653Z,101558.81
2022-08-27T17:06:58.357Z,101564.44
2022-08-27T17:09:43.702Z,101571.81
2022-08-27T17:12:29.665Z,101568.63
2022-08-27T17:15:18.572Z,101563.75
2022-08-27T17:18:04.324Z,101562.91
2022-08-27T17:20:51.415Z,101551.84
2022-08-27T17:23:40.790Z,101555.28
2022-08-27T17:26:26.344Z,101562.63
2022-08-27T17:29:11.714Z,101568.16
2022-08-27T17:31:56.550Z,101571.47
2022-08-27T17:34:41.774Z,101561.91
2022-08-27T17:37:26.710Z,101565.03
2022-08-27T17:40:12.136Z,101569.50
2022-08-27T17:42:58.456Z,101565.91
2022-08-27T17:45:49.037Z,101579.81
2022-08-27T17:48:34.561Z,101569.09
2022-08-27T17:51:20.931Z,101581.88
2022-08-27T17:54:09.281Z,101585.03
2022-08-27T17:56:54.538Z,101577.78
2022-08-27T17:59:39.682Z,101589.78
2022-08-27T18:02:29.962Z,101578.53
2022-08-27T18:05:17.036Z,101593.38
2022-08-27T18:08:02.521Z,101587.66
2022-08-27T18:10:47.969Z,101594.91
2022-08-27T18:13:37.106Z,101602.75
2022-08-27T18:16:22.474Z,101599.50
2022-08-27T18:19:08.773Z,101596.16
2022-08-27T18:21:54.124Z,101597.91
2022-08-27T18:24:39.301Z,101605.75
2022-08-27T18:27:29.050Z,101614.66
2022-08-27T18:30:14.666Z,101619.03
2022-08-27T18:33:00.099Z,101623.47
2022-08-27T18:35:45.741Z,101618.41
2022-08-27T18:38:31.355Z,101633.16
2022-08-27T18:41:18.845Z,101628.16
2022-08-27T18:44:04.594Z,101630.44
2022-08-27T18:47:03.151Z,101632.56
2022-08-27T18:49:48.097Z,101638.19
2022-08-27T18:52:33.423Z,101637.38
2022-08-27T18:55:22.937Z,101650.53
2022-08-27T18:58:08.218Z,101657.03
2022-08-27T19:00:57.026Z,101662.34
2022-08-27T19:03:45.868Z,101647.84
2022-08-27T19:06:31.613Z,101662.13
2022-08-27T19:09:18.056Z,101650.09
2022-08-27T19:12:04.358Z,101667.88
2022-08-27T19:14:49.692Z,101661.44
2022-08-27T19:17:35.961Z,101670.69
2022-08-27T19:20:21.670Z,101661.88
2022-08-27T19:23:06.821Z,101667.88
2022-08-27T19:25:52.939Z,101672.38
2022-08-27T19:28:40.850Z,101670.13
2022-08-27T19:31:25.880Z,101673.34
2022-08-27T19:34:11.312Z,101676.16
2022-08-27T19:36:58.652Z,101681.31
2022-08-27T19:39:43.589Z,101683.97
2022-08-27T19:42:29.346Z,101692.38
2022-08-27T19:45:14.404Z,101686.22
2022-08-27T19:47:59.937Z,101690.97
2022-08-27T19:50:45.358Z,101694.19
2022-08-27T19:53:30.222Z,101692.34
2022-08-27T19:56:15.517Z,101693.47
2022-08-27T19:59:14.523Z,101697.09
2022-08-27T20:02:08.835Z,101698.47
2022-08-27T20:05:16.308Z,101688.69
2022-08-27T20:07:58.821Z,101701.09
2022-08-27T20:10:44.477Z,101704.28
2022-08-27T20:13:33.098Z,101703.44
2022-08-27T20:16:18.369Z,101702.88
2022-08-27T20:19:05.063Z,101694.06
2022-08-27T20:21:50.399Z,101695.00
2022-08-27T20:24:37.077Z,101714.44
2022-08-27T20:27:22.307Z,101714.84
2022-08-27T20:30:10.283Z,101711.47
2022-08-27T20:32:55.750Z,101722.22
2022-08-27T20:35:40.915Z,101720.09
2022-08-27T20:38:26.174Z,101725.38
2022-08-27T20:41:11.570Z,101711.22
2022-08-27T20:43:57.072Z,101722.41
2022-08-27T20:46:42.478Z,101710.19
2022-08-27T20:49:35.428Z,101710.78
2022-08-27T20:52:20.657Z,101728.25
2022-08-27T20:55:06.883Z,101715.75
2022-08-27T20:58:10.561Z,101721.94
2022-08-27T21:00:56.057Z,101727.72
2022-08-27T21:03:41.416Z,101718.88
2022-08-27T21:06:26.774Z,101733.13
2022-08-27T21:09:11.788Z,101735.31
2022-08-27T21:11:57.532Z,101723.03
2022-08-27T21:14:42.408Z,101735.63
2022-08-27T21:17:28.681Z,101732.97
2022-08-27T21:20:14.101Z,101734.63
2022-08-27T21:23:00.067Z,101735.63
2022-08-27T21:25:45.540Z,101737.66
2022-08-27T21:28:31.097Z,101725.19
2022-08-27T21:31:16.501Z,101738.31
2022-08-27T21:34:01.865Z,101735.31
2022-08-27T21:36:47.287Z,101742.69
2022-08-27T21:39:34.248Z,101748.47
2022-08-27T21:42:19.577Z,101745.63
2022-08-27T21:45:05.659Z,101733.00
2022-08-27T21:47:51.849Z,101749.03
2022-08-27T21:50:37.509Z,101751.38
2022-08-27T21:53:23.154Z,101751.88
2022-08-27T21:56:08.605Z,101743.81
2022-08-27T21:58:53.689Z,101750.91
2022-08-27T22:01:39.529Z,101747.91
2022-08-27T22:04:26.373Z,101753.44
2022-08-27T22:07:15.197Z,101756.31
2022-08-27T22:10:00.472Z,101761.03
2022-08-27T22:12:45.737Z,101754.53
2022-08-27T22:15:31.399Z,101761.00
2022-08-27T22:18:17.444Z,101765.47
2022-08-27T22:21:12.715Z,101763.28
2022-08-27T22:24:02.498Z,101760.75
2022-08-27T22:26:47.859Z,101755.13
2022-08-27T22:29:33.119Z,101761.59
2022-08-27T22:32:19.070Z,101760.25
2022-08-27T22:35:05.041Z,101756.63
2022-08-27T22:37:50.431Z,101761.66
2022-08-27T22:40:36.197Z,101766.09
2022-08-27T22:43:22.485Z,101768.16
2022-08-27T22:46:08.021Z,101769.25
2022-08-27T22:48:52.829Z,101770.91
2022-08-27T22:51:38.060Z,101759.56
2022-08-27T22:54:23.368Z,101768.97
2022-08-27T22:57:10.592Z,101770.72
2022-08-27T22:59:55.883Z,101766.75
2022-08-27T23:02:41.061Z,101773.09
2022-08-27T23:05:26.822Z,101773.56
2022-08-27T23:08:14.292Z,101770.88
2022-08-27T23:10:59.720Z,101781.66
2022-08-27T23:13:45.316Z,101780.81
2022-08-27T23:16:31.666Z,101769.78
2022-08-27T23:19:17.610Z,101773.28
2022-08-27T23:22:02.524Z,101765.16
2022-08-27T23:25:11.945Z,101775.97
2022-08-27T23:27:59.676Z,101761.19
2022-08-27T23:30:45.661Z,101755.63
2022-08-27T23:33:30.838Z,101769.56
2022-08-27T23:36:16.069Z,101760.81
2022-08-27T23:39:01.117Z,101772.13
2022-08-27T23:41:46.688Z,101760.75
2022-08-27T23:44:32.128Z,101776.69
2022-08-27T23:47:17.787Z,101752.94
2022-08-27T23:50:04.857Z,101779.22
2022-08-27T23:52:50.076Z,101784.81
2022-08-27T23:55:36.462Z,101786.09
2022-08-27T23:58:21.481Z,101788.22
